sensor_id;sensor_type;location;lat;lon;timestamp;P1;durP1;ratioP1;P2;durP2;ratioP2
73219;SDS011;61434;43.538;-5.688;2022-10-16T00:00:40;9.27;;;2.33;;
73219;SDS011;61434;43.538;-5.688;2022-10-16T00:03:06;12.57;;;2.47;;
73219;SDS011;61434;43.538;-5.688;2022-10-16T00:05:33;11.00;;;2.83;;
73219;SDS011;61434;43.538;-5.688;2022-10-16T00:08:03;8.20;;;2.30;;
73219;SDS011;61434;43.538;-5.688;2022-10-16T00:10:29;6.97;;;2.70;;
73219;SDS011;61434;43.538;-5.688;2022-10-16T00:12:54;6.00;;;2.70;;
73219;SDS011;61434;43.538;-5.688;2022-10-16T00:15:20;9.38;;;3.00;;
73219;SDS011;61434;43.538;-5.688;2022-10-16T00:17:45;8.13;;;3.03;;
73219;SDS011;61434;43.538;-5.688;2022-10-16T00:20:11;9.87;;;3.50;;
73219;SDS011;61434;43.538;-5.688;2022-10-16T00:22:36;9.15;;;2.95;;
73219;SDS011;61434;43.538;-5.688;2022-10-16T00:25:02;10.93;;;3.22;;
73219;SDS011;61434;43.538;-5.688;2022-10-16T00:27:27;8.07;;;3.57;;
73219;SDS011;61434;43.538;-5.688;2022-10-16T00:29:53;8.93;;;3.53;;
73219;SDS011;61434;43.538;-5.688;2022-10-16T00:32:19;10.50;;;3.75;;
73219;SDS011;61434;43.538;-5.688;2022-10-16T00:34:44;11.15;;;3.90;;
73219;SDS011;61434;43.538;-5.688;2022-10-16T00:37:10;14.00;;;3.63;;
73219;SDS011;61434;43.538;-5.688;2022-10-16T00:39:36;9.50;;;3.90;;
73219;SDS011;61434;43.538;-5.688;2022-10-16T00:42:02;10.10;;;4.20;;
73219;SDS011;61434;43.538;-5.688;2022-10-16T00:44:47;12.80;;;4.00;;
73219;SDS011;61434;43.538;-5.688;2022-10-16T00:47:23;12.77;;;4.35;;
73219;SDS011;61434;43.538;-5.688;2022-10-16T00:49:53;9.93;;;4.43;;
73219;SDS011;61434;43.538;-5.688;2022-10-16T00:52:23;12.50;;;4.72;;
73219;SDS011;61434;43.538;-5.688;2022-10-16T00:54:49;13.88;;;4.93;;
73219;SDS011;61434;43.538;-5.688;2022-10-16T00:57:16;11.63;;;4.88;;
73219;SDS011;61434;43.538;-5.688;2022-10-16T00:59:42;13.47;;;5.27;;
73219;SDS011;61434;43.538;-5.688;2022-10-16T01:02:10;12.83;;;5.57;;
73219;SDS011;61434;43.538;-5.688;2022-10-16T01:04:47;9.52;;;4.75;;
73219;SDS011;61434;43.538;-5.688;2022-10-16T01:15:47;11.65;;;4.63;;
73219;SDS011;61434;43.538;-5.688;2022-10-16T01:21:02;10.93;;;4.93;;
73219;SDS011;61434;43.538;-5.688;2022-10-16T01:29:28;15.00;;;4.80;;
73219;SDS011;61434;43.538;-5.688;2022-10-16T01:32:01;13.30;;;4.75;;
73219;SDS011;61434;43.538;-5.688;2022-10-16T01:34:37;12.60;;;4.25;;
73219;SDS011;61434;43.538;-5.688;2022-10-16T01:37:11;13.20;;;4.22;;
73219;SDS011;61434;43.538;-5.688;2022-10-16T01:39:41;8.85;;;4.28;;
73219;SDS011;61434;43.538;-5.688;2022-10-16T01:42:18;15.15;;;5.05;;
73219;SDS011;61434;43.538;-5.688;2022-10-16T01:44:48;11.65;;;4.68;;
73219;SDS011;61434;43.538;-5.688;2022-10-16T01:47:16;9.57;;;4.25;;
73219;SDS011;61434;43.538;-5.688;2022-10-16T01:49:44;9.50;;;4.35;;
73219;SDS011;61434;43.538;-5.688;2022-10-16T01:52:13;13.07;;;5.40;;
73219;SDS011;61434;43.538;-5.688;2022-10-16T01:54:43;14.48;;;5.53;;
73219;SDS011;61434;43.538;-5.688;2022-10-16T01:57:12;13.25;;;5.80;;
73219;SDS011;61434;43.538;-5.688;2022-10-16T01:59:41;11.68;;;4.95;;
73219;SDS011;61434;43.538;-5.688;2022-10-16T02:02:11;11.75;;;5.63;;
73219;SDS011;61434;43.538;-5.688;2022-10-16T02:04:47;15.38;;;5.60;;
73219;SDS011;61434;43.538;-5.688;2022-10-16T02:07:18;12.25;;;5.47;;
73219;SDS011;61434;43.538;-5.688;2022-10-16T02:09:44;11.13;;;5.07;;
73219;SDS011;61434;43.538;-5.688;2022-10-16T02:12:31;11.55;;;5.10;;
73219;SDS011;61434;43.538;-5.688;2022-10-16T02:15:01;12.60;;;5.68;;
73219;SDS011;61434;43.538;-5.688;2022-10-16T02:17:28;14.45;;;5.32;;
73219;SDS011;61434;43.538;-5.688;2022-10-16T02:19:54;13.68;;;5.65;;
73219;SDS011;61434;43.538;-5.688;2022-10-16T02:22:22;15.00;;;5.63;;
73219;SDS011;61434;43.538;-5.688;2022-10-16T02:25:05;12.75;;;5.35;;
73219;SDS011;61434;43.538;-5.688;2022-10-16T02:27:37;12.87;;;5.50;;
73219;SDS011;61434;43.538;-5.688;2022-10-16T02:30:13;12.02;;;5.72;;
73219;SDS011;61434;43.538;-5.688;2022-10-16T02:32:45;12.10;;;5.70;;
73219;SDS011;61434;43.538;-5.688;2022-10-16T02:35:13;11.63;;;5.30;;
73219;SDS011;61434;43.538;-5.688;2022-10-16T02:37:42;11.40;;;5.80;;
73219;SDS011;61434;43.538;-5.688;2022-10-16T02:40:08;11.30;;;5.80;;
73219;SDS011;61434;43.538;-5.688;2022-10-16T02:42:35;9.93;;;5.13;;
73219;SDS011;61434;43.538;-5.688;2022-10-16T02:45:02;11.30;;;5.97;;
73219;SDS011;61434;43.538;-5.688;2022-10-16T02:47:28;11.38;;;5.72;;
73219;SDS011;61434;43.538;-5.688;2022-10-16T02:49:54;11.83;;;5.60;;
73219;SDS011;61434;43.538;-5.688;2022-10-16T02:52:19;10.00;;;5.40;;
73219;SDS011;61434;43.538;-5.688;2022-10-16T02:54:45;11.30;;;5.50;;
73219;SDS011;61434;43.538;-5.688;2022-10-16T02:57:10;15.02;;;6.07;;
73219;SDS011;61434;43.538;-5.688;2022-10-16T02:59:36;10.30;;;5.80;;
73219;SDS011;61434;43.538;-5.688;2022-10-16T03:02:02;12.38;;;6.07;;
73219;SDS011;61434;43.538;-5.688;2022-10-16T03:04:28;13.88;;;6.15;;
73219;SDS011;61434;43.538;-5.688;2022-10-16T03:06:53;11.38;;;5.95;;
73219;SDS011;61434;43.538;-5.688;2022-10-16T03:09:19;12.63;;;6.27;;
73219;SDS011;61434;43.538;-5.688;2022-10-16T03:11:44;15.07;;;6.60;;
73219;SDS011;61434;43.538;-5.688;2022-10-16T03:14:10;11.73;;;6.73;;
73219;SDS011;61434;43.538;-5.688;2022-10-16T03:16:35;10.38;;;6.25;;
73219;SDS011;61434;43.538;-5.688;2022-10-16T03:19:02;15.17;;;6.80;;
73219;SDS011;61434;43.538;-5.688;2022-10-16T03:21:27;16.45;;;8.10;;
73219;SDS011;61434;43.538;-5.688;2022-10-16T03:23:53;13.87;;;7.07;;
73219;SDS011;61434;43.538;-5.688;2022-10-16T03:26:18;11.03;;;6.90;;
73219;SDS011;61434;43.538;-5.688;2022-10-16T03:28:44;12.43;;;7.37;;
73219;SDS011;61434;43.538;-5.688;2022-10-16T03:31:09;12.57;;;6.85;;
73219;SDS011;61434;43.538;-5.688;2022-10-16T03:33:34;17.60;;;7.43;;
73219;SDS011;61434;43.538;-5.688;2022-10-16T03:36:00;17.20;;;7.33;;
73219;SDS011;61434;43.538;-5.688;2022-10-16T03:38:25;16.00;;;7.97;;
73219;SDS011;61434;43.538;-5.688;2022-10-16T03:40:51;13.57;;;7.47;;
73219;SDS011;61434;43.538;-5.688;2022-10-16T03:43:16;15.83;;;7.80;;
73219;SDS011;61434;43.538;-5.688;2022-10-16T03:45:42;14.40;;;7.27;;
73219;SDS011;61434;43.538;-5.688;2022-10-16T03:48:07;14.98;;;7.47;;
73219;SDS011;61434;43.538;-5.688;2022-10-16T03:50:33;12.97;;;6.70;;
73219;SDS011;61434;43.538;-5.688;2022-10-16T03:52:58;13.73;;;6.70;;
73219;SDS011;61434;43.538;-5.688;2022-10-16T03:55:24;12.67;;;6.93;;
73219;SDS011;61434;43.538;-5.688;2022-10-16T03:57:49;11.53;;;6.27;;
73219;SDS011;61434;43.538;-5.688;2022-10-16T04:00:15;14.27;;;7.85;;
73219;SDS011;61434;43.538;-5.688;2022-10-16T04:02:40;15.70;;;7.17;;
73219;SDS011;61434;43.538;-5.688;2022-10-16T04:05:06;16.33;;;7.57;;
73219;SDS011;61434;43.538;-5.688;2022-10-16T04:07:32;11.93;;;6.57;;
73219;SDS011;61434;43.538;-5.688;2022-10-16T04:09:57;13.70;;;6.97;;
73219;SDS011;61434;43.538;-5.688;2022-10-16T04:12:24;12.98;;;6.20;;
73219;SDS011;61434;43.538;-5.688;2022-10-16T04:14:52;14.00;;;6.20;;
73219;SDS011;61434;43.538;-5.688;2022-10-16T04:17:18;16.17;;;6.90;;
73219;SDS011;61434;43.538;-5.688;2022-10-16T04:19:43;13.07;;;6.20;;
73219;SDS011;61434;43.538;-5.688;2022-10-16T04:22:09;12.23;;;6.27;;
73219;SDS011;61434;43.538;-5.688;2022-10-16T04:24:34;14.07;;;6.40;;
73219;SDS011;61434;43.538;-5.688;2022-10-16T04:27:00;11.70;;;6.17;;
73219;SDS011;61434;43.538;-5.688;2022-10-16T04:29:25;12.57;;;6.15;;
73219;SDS011;61434;43.538;-5.688;2022-10-16T04:31:51;11.37;;;5.90;;
73219;SDS011;61434;43.538;-5.688;2022-10-16T04:34:16;13.63;;;6.77;;
73219;SDS011;61434;43.538;-5.688;2022-10-16T04:36:42;16.83;;;7.30;;
73219;SDS011;61434;43.538;-5.688;2022-10-16T04:39:07;12.88;;;6.55;;
73219;SDS011;61434;43.538;-5.688;2022-10-16T04:41:33;10.80;;;5.50;;
73219;SDS011;61434;43.538;-5.688;2022-10-16T04:43:58;12.93;;;6.47;;
73219;SDS011;61434;43.538;-5.688;2022-10-16T04:46:24;13.57;;;6.38;;
73219;SDS011;61434;43.538;-5.688;2022-10-16T04:48:49;15.40;;;6.77;;
73219;SDS011;61434;43.538;-5.688;2022-10-16T04:51:15;17.33;;;7.63;;
73219;SDS011;61434;43.538;-5.688;2022-10-16T04:53:40;14.53;;;7.23;;
73219;SDS011;61434;43.538;-5.688;2022-10-16T04:56:06;12.38;;;6.75;;
73219;SDS011;61434;43.538;-5.688;2022-10-16T04:58:31;15.70;;;7.17;;
73219;SDS011;61434;43.538;-5.688;2022-10-16T05:00:57;14.77;;;6.37;;
73219;SDS011;61434;43.538;-5.688;2022-10-16T05:03:22;14.20;;;6.70;;
73219;SDS011;61434;43.538;-5.688;2022-10-16T05:05:48;16.67;;;7.40;;
73219;SDS011;61434;43.538;-5.688;2022-10-16T05:08:14;15.93;;;7.40;;
73219;SDS011;61434;43.538;-5.688;2022-10-16T05:10:41;16.92;;;7.90;;
73219;SDS011;61434;43.538;-5.688;2022-10-16T05:13:07;13.27;;;6.63;;
73219;SDS011;61434;43.538;-5.688;2022-10-16T05:15:33;17.90;;;7.97;;
73219;SDS011;61434;43.538;-5.688;2022-10-16T05:17:59;18.40;;;8.13;;
73219;SDS011;61434;43.538;-5.688;2022-10-16T05:20:24;24.57;;;9.60;;
73219;SDS011;61434;43.538;-5.688;2022-10-16T05:22:50;22.23;;;10.07;;
73219;SDS011;61434;43.538;-5.688;2022-10-16T05:25:16;20.23;;;9.30;;
73219;SDS011;61434;43.538;-5.688;2022-10-16T05:27:41;24.50;;;11.23;;
73219;SDS011;61434;43.538;-5.688;2022-10-16T05:30:07;25.37;;;9.83;;
73219;SDS011;61434;43.538;-5.688;2022-10-16T05:32:33;21.63;;;10.02;;
73219;SDS011;61434;43.538;-5.688;2022-10-16T05:34:59;22.13;;;9.97;;
73219;SDS011;61434;43.538;-5.688;2022-10-16T05:37:25;18.45;;;9.65;;
73219;SDS011;61434;43.538;-5.688;2022-10-16T05:39:52;19.17;;;9.40;;
73219;SDS011;61434;43.538;-5.688;2022-10-16T05:42:17;18.67;;;9.30;;
73219;SDS011;61434;43.538;-5.688;2022-10-16T05:44:43;21.70;;;10.35;;
73219;SDS011;61434;43.538;-5.688;2022-10-16T05:47:09;22.10;;;10.07;;
73219;SDS011;61434;43.538;-5.688;2022-10-16T05:49:35;20.02;;;9.38;;
73219;SDS011;61434;43.538;-5.688;2022-10-16T05:52:01;18.63;;;9.70;;
73219;SDS011;61434;43.538;-5.688;2022-10-16T05:54:27;27.95;;;10.50;;
73219;SDS011;61434;43.538;-5.688;2022-10-16T05:56:52;24.27;;;11.10;;
73219;SDS011;61434;43.538;-5.688;2022-10-16T05:59:18;18.50;;;9.37;;
73219;SDS011;61434;43.538;-5.688;2022-10-16T06:01:43;21.47;;;10.03;;
73219;SDS011;61434;43.538;-5.688;2022-10-16T06:04:09;22.58;;;11.50;;
73219;SDS011;61434;43.538;-5.688;2022-10-16T06:06:34;27.13;;;11.90;;
73219;SDS011;61434;43.538;-5.688;2022-10-16T06:09:01;30.63;;;13.90;;
73219;SDS011;61434;43.538;-5.688;2022-10-16T06:11:28;27.00;;;12.82;;
73219;SDS011;61434;43.538;-5.688;2022-10-16T06:13:56;33.70;;;14.60;;
73219;SDS011;61434;43.538;-5.688;2022-10-16T06:16:23;26.20;;;12.30;;
73219;SDS011;61434;43.538;-5.688;2022-10-16T06:18:50;27.58;;;12.25;;
73219;SDS011;61434;43.538;-5.688;2022-10-16T06:21:18;30.48;;;13.18;;
73219;SDS011;61434;43.538;-5.688;2022-10-16T06:23:45;30.52;;;12.95;;
73219;SDS011;61434;43.538;-5.688;2022-10-16T06:26:15;30.17;;;14.67;;
73219;SDS011;61434;43.538;-5.688;2022-10-16T06:28:43;31.17;;;13.40;;
73219;SDS011;61434;43.538;-5.688;2022-10-16T06:31:09;25.13;;;12.73;;
73219;SDS011;61434;43.538;-5.688;2022-10-16T06:33:36;28.30;;;12.57;;
73219;SDS011;61434;43.538;-5.688;2022-10-16T06:38:35;21.07;;;11.27;;
73219;SDS011;61434;43.538;-5.688;2022-10-16T06:41:01;24.60;;;11.82;;
73219;SDS011;61434;43.538;-5.688;2022-10-16T06:43:28;21.52;;;11.73;;
73219;SDS011;61434;43.538;-5.688;2022-10-16T06:45:59;27.27;;;10.85;;
73219;SDS011;61434;43.538;-5.688;2022-10-16T06:48:25;20.52;;;10.90;;
73219;SDS011;61434;43.538;-5.688;2022-10-16T06:50:58;19.23;;;9.93;;
73219;SDS011;61434;43.538;-5.688;2022-10-16T06:53:25;16.23;;;9.57;;
73219;SDS011;61434;43.538;-5.688;2022-10-16T06:55:53;18.23;;;9.80;;
73219;SDS011;61434;43.538;-5.688;2022-10-16T06:58:19;18.27;;;9.73;;
73219;SDS011;61434;43.538;-5.688;2022-10-16T07:00:44;17.77;;;9.13;;
73219;SDS011;61434;43.538;-5.688;2022-10-16T07:03:10;16.53;;;9.27;;
73219;SDS011;61434;43.538;-5.688;2022-10-16T07:05:38;17.57;;;10.00;;
73219;SDS011;61434;43.538;-5.688;2022-10-16T07:08:05;18.42;;;10.35;;
73219;SDS011;61434;43.538;-5.688;2022-10-16T07:10:31;17.37;;;9.87;;
73219;SDS011;61434;43.538;-5.688;2022-10-16T07:12:56;16.73;;;10.20;;
73219;SDS011;61434;43.538;-5.688;2022-10-16T07:15:22;18.83;;;9.17;;
73219;SDS011;61434;43.538;-5.688;2022-10-16T07:17:47;16.33;;;9.55;;
73219;SDS011;61434;43.538;-5.688;2022-10-16T07:20:13;14.27;;;8.90;;
73219;SDS011;61434;43.538;-5.688;2022-10-16T07:22:39;16.50;;;8.77;;
73219;SDS011;61434;43.538;-5.688;2022-10-16T07:25:04;14.57;;;9.07;;
73219;SDS011;61434;43.538;-5.688;2022-10-16T07:27:30;15.15;;;8.50;;
73219;SDS011;61434;43.538;-5.688;2022-10-16T07:29:55;17.42;;;8.40;;
73219;SDS011;61434;43.538;-5.688;2022-10-16T07:32:21;14.47;;;8.93;;
73219;SDS011;61434;43.538;-5.688;2022-10-16T07:34:46;15.73;;;8.50;;
73219;SDS011;61434;43.538;-5.688;2022-10-16T07:37:12;16.40;;;9.23;;
73219;SDS011;61434;43.538;-5.688;2022-10-16T07:39:37;14.90;;;9.10;;
73219;SDS011;61434;43.538;-5.688;2022-10-16T07:42:03;16.57;;;8.90;;
73219;SDS011;61434;43.538;-5.688;2022-10-16T07:44:28;17.40;;;9.70;;
73219;SDS011;61434;43.538;-5.688;2022-10-16T07:46:54;17.43;;;9.60;;
73219;SDS011;61434;43.538;-5.688;2022-10-16T07:49:19;16.55;;;9.15;;
73219;SDS011;61434;43.538;-5.688;2022-10-16T07:51:45;17.57;;;9.07;;
73219;SDS011;61434;43.538;-5.688;2022-10-16T07:54:10;18.38;;;9.73;;
73219;SDS011;61434;43.538;-5.688;2022-10-16T07:56:36;16.42;;;9.13;;
73219;SDS011;61434;43.538;-5.688;2022-10-16T07:59:01;18.00;;;9.33;;
73219;SDS011;61434;43.538;-5.688;2022-10-16T08:01:27;18.90;;;9.93;;
73219;SDS011;61434;43.538;-5.688;2022-10-16T08:03:52;18.30;;;10.48;;
73219;SDS011;61434;43.538;-5.688;2022-10-16T08:06:19;17.63;;;10.00;;
73219;SDS011;61434;43.538;-5.688;2022-10-16T08:08:46;17.65;;;9.40;;
73219;SDS011;61434;43.538;-5.688;2022-10-16T08:11:12;17.65;;;10.20;;
73219;SDS011;61434;43.538;-5.688;2022-10-16T08:13:39;18.13;;;10.17;;
73219;SDS011;61434;43.538;-5.688;2022-10-16T08:16:04;18.08;;;10.60;;
73219;SDS011;61434;43.538;-5.688;2022-10-16T08:18:37;18.83;;;10.48;;
73219;SDS011;61434;43.538;-5.688;2022-10-16T08:21:05;18.50;;;10.05;;
73219;SDS011;61434;43.538;-5.688;2022-10-16T08:23:31;20.80;;;11.70;;
73219;SDS011;61434;43.538;-5.688;2022-10-16T08:26:01;17.67;;;9.90;;
73219;SDS011;61434;43.538;-5.688;2022-10-16T08:28:28;17.02;;;9.13;;
73219;SDS011;61434;43.538;-5.688;2022-10-16T08:30:54;17.90;;;10.13;;
73219;SDS011;61434;43.538;-5.688;2022-10-16T08:33:21;17.80;;;9.18;;
73219;SDS011;61434;43.538;-5.688;2022-10-16T08:35:53;18.30;;;9.67;;
73219;SDS011;61434;43.538;-5.688;2022-10-16T08:38:19;17.52;;;9.32;;
73219;SDS011;61434;43.538;-5.688;2022-10-16T08:40:45;18.17;;;9.55;;
73219;SDS011;61434;43.538;-5.688;2022-10-16T08:43:16;17.37;;;9.67;;
73219;SDS011;61434;43.538;-5.688;2022-10-16T08:48:46;22.38;;;10.55;;
73219;SDS011;61434;43.538;-5.688;2022-10-16T08:54:03;24.80;;;11.02;;
73219;SDS011;61434;43.538;-5.688;2022-10-16T08:56:30;17.40;;;10.10;;
73219;SDS011;61434;43.538;-5.688;2022-10-16T08:58:57;19.75;;;10.32;;
73219;SDS011;61434;43.538;-5.688;2022-10-16T09:01:25;18.40;;;9.82;;
73219;SDS011;61434;43.538;-5.688;2022-10-16T09:06:47;18.37;;;10.37;;
73219;SDS011;61434;43.538;-5.688;2022-10-16T09:11:55;18.13;;;9.48;;
73219;SDS011;61434;43.538;-5.688;2022-10-16T09:20:26;17.43;;;9.03;;
73219;SDS011;61434;43.538;-5.688;2022-10-16T09:25:41;16.13;;;8.18;;
73219;SDS011;61434;43.538;-5.688;2022-10-16T09:28:09;14.40;;;7.72;;
73219;SDS011;61434;43.538;-5.688;2022-10-16T09:30:35;15.27;;;8.30;;
73219;SDS011;61434;43.538;-5.688;2022-10-16T09:33:03;14.80;;;8.15;;
73219;SDS011;61434;43.538;-5.688;2022-10-16T09:38:26;16.60;;;9.40;;
73219;SDS011;61434;43.538;-5.688;2022-10-16T09:41:00;17.10;;;9.30;;
73219;SDS011;61434;43.538;-5.688;2022-10-16T09:46:07;14.90;;;9.27;;
73219;SDS011;61434;43.538;-5.688;2022-10-16T09:48:47;16.38;;;9.15;;
73219;SDS011;61434;43.538;-5.688;2022-10-16T09:53:56;14.40;;;8.93;;
73219;SDS011;61434;43.538;-5.688;2022-10-16T09:56:28;14.23;;;8.43;;
73219;SDS011;61434;43.538;-5.688;2022-10-16T09:58:59;17.95;;;8.68;;
73219;SDS011;61434;43.538;-5.688;2022-10-16T10:01:36;16.38;;;8.68;;
73219;SDS011;61434;43.538;-5.688;2022-10-16T10:04:06;14.75;;;7.82;;
73219;SDS011;61434;43.538;-5.688;2022-10-16T10:06:33;13.37;;;7.63;;
73219;SDS011;61434;43.538;-5.688;2022-10-16T10:09:04;12.07;;;7.28;;
73219;SDS011;61434;43.538;-5.688;2022-10-16T10:19:51;13.07;;;8.17;;
73219;SDS011;61434;43.538;-5.688;2022-10-16T10:30:33;17.23;;;9.65;;
73219;SDS011;61434;43.538;-5.688;2022-10-16T10:36:09;18.40;;;8.57;;
73219;SDS011;61434;43.538;-5.688;2022-10-16T10:38:58;17.00;;;8.95;;
73219;SDS011;61434;43.538;-5.688;2022-10-16T10:52:48;9.73;;;5.20;;
73219;SDS011;61434;43.538;-5.688;2022-10-16T10:55:37;11.13;;;5.05;;
73219;SDS011;61434;43.538;-5.688;2022-10-16T11:05:59;11.13;;;5.22;;
73219;SDS011;61434;43.538;-5.688;2022-10-16T11:08:32;11.65;;;4.95;;
73219;SDS011;61434;43.538;-5.688;2022-10-16T11:11:18;10.77;;;5.28;;
73219;SDS011;61434;43.538;-5.688;2022-10-16T11:17:01;13.23;;;6.20;;
73219;SDS011;61434;43.538;-5.688;2022-10-16T11:19:55;12.35;;;5.70;;
73219;SDS011;61434;43.538;-5.688;2022-10-16T11:22:34;12.90;;;6.20;;
73219;SDS011;61434;43.538;-5.688;2022-10-16T11:25:11;11.15;;;5.70;;
73219;SDS011;61434;43.538;-5.688;2022-10-16T11:27:46;14.67;;;6.17;;
73219;SDS011;61434;43.538;-5.688;2022-10-16T11:30:14;12.82;;;6.15;;
73219;SDS011;61434;43.538;-5.688;2022-10-16T11:38:14;17.42;;;5.60;;
73219;SDS011;61434;43.538;-5.688;2022-10-16T11:40:49;13.07;;;5.17;;
73219;SDS011;61434;43.538;-5.688;2022-10-16T11:45:54;14.90;;;5.53;;
73219;SDS011;61434;43.538;-5.688;2022-10-16T11:51:34;17.00;;;5.32;;
73219;SDS011;61434;43.538;-5.688;2022-10-16T11:56:36;11.07;;;5.07;;
73219;SDS011;61434;43.538;-5.688;2022-10-16T11:59:06;14.13;;;5.50;;
73219;SDS011;61434;43.538;-5.688;2022-10-16T12:06:59;14.37;;;6.50;;
73219;SDS011;61434;43.538;-5.688;2022-10-16T12:09:28;14.55;;;5.35;;
73219;SDS011;61434;43.538;-5.688;2022-10-16T12:11:55;12.52;;;5.45;;
73219;SDS011;61434;43.538;-5.688;2022-10-16T12:14:35;14.75;;;6.00;;
73219;SDS011;61434;43.538;-5.688;2022-10-16T12:17:03;11.85;;;5.05;;
73219;SDS011;61434;43.538;-5.688;2022-10-16T12:20:00;16.05;;;6.70;;
73219;SDS011;61434;43.538;-5.688;2022-10-16T12:22:54;14.90;;;6.07;;
73219;SDS011;61434;43.538;-5.688;2022-10-16T12:28:06;14.93;;;7.25;;
73219;SDS011;61434;43.538;-5.688;2022-10-16T12:30:56;14.63;;;6.50;;
73219;SDS011;61434;43.538;-5.688;2022-10-16T12:33:25;13.93;;;5.82;;
73219;SDS011;61434;43.538;-5.688;2022-10-16T12:35:53;13.80;;;5.57;;
73219;SDS011;61434;43.538;-5.688;2022-10-16T12:38:20;12.20;;;5.70;;
73219;SDS011;61434;43.538;-5.688;2022-10-16T12:41:03;15.30;;;5.93;;
73219;SDS011;61434;43.538;-5.688;2022-10-16T12:43:46;18.42;;;5.88;;
73219;SDS011;61434;43.538;-5.688;2022-10-16T12:48:38;12.27;;;5.30;;
73219;SDS011;61434;43.538;-5.688;2022-10-16T13:10:41;11.50;;;4.57;;
73219;SDS011;61434;43.538;-5.688;2022-10-16T13:16:12;11.63;;;5.22;;
73219;SDS011;61434;43.538;-5.688;2022-10-16T13:27:14;11.55;;;5.55;;
73219;SDS011;61434;43.538;-5.688;2022-10-16T13:29:58;13.63;;;5.13;;
73219;SDS011;61434;43.538;-5.688;2022-10-16T13:32:27;12.52;;;5.55;;
73219;SDS011;61434;43.538;-5.688;2022-10-16T13:34:53;10.60;;;4.55;;
73219;SDS011;61434;43.538;-5.688;2022-10-16T13:37:22;11.13;;;5.18;;
73219;SDS011;61434;43.538;-5.688;2022-10-16T13:39:48;11.65;;;4.63;;
73219;SDS011;61434;43.538;-5.688;2022-10-16T13:42:26;16.80;;;6.00;;
73219;SDS011;61434;43.538;-5.688;2022-10-16T13:44:53;11.13;;;5.40;;
73219;SDS011;61434;43.538;-5.688;2022-10-16T13:47:21;12.10;;;4.57;;
73219;SDS011;61434;43.538;-5.688;2022-10-16T13:52:44;13.93;;;5.15;;
73219;SDS011;61434;43.538;-5.688;2022-10-16T13:55:10;11.13;;;5.27;;
73219;SDS011;61434;43.538;-5.688;2022-10-16T13:57:36;9.07;;;4.57;;
73219;SDS011;61434;43.538;-5.688;2022-10-16T14:00:02;12.80;;;5.07;;
73219;SDS011;61434;43.538;-5.688;2022-10-16T14:02:31;11.33;;;4.43;;
73219;SDS011;61434;43.538;-5.688;2022-10-16T14:05:04;10.52;;;4.60;;
73219;SDS011;61434;43.538;-5.688;2022-10-16T14:07:35;11.98;;;4.90;;
73219;SDS011;61434;43.538;-5.688;2022-10-16T14:10:02;11.05;;;4.97;;
73219;SDS011;61434;43.538;-5.688;2022-10-16T14:12:31;15.40;;;5.20;;
73219;SDS011;61434;43.538;-5.688;2022-10-16T14:14:57;11.38;;;5.05;;
73219;SDS011;61434;43.538;-5.688;2022-10-16T14:17:25;14.18;;;5.20;;
73219;SDS011;61434;43.538;-5.688;2022-10-16T14:19:56;13.95;;;5.30;;
73219;SDS011;61434;43.538;-5.688;2022-10-16T14:24:51;13.60;;;4.97;;
73219;SDS011;61434;43.538;-5.688;2022-10-16T14:27:26;16.17;;;5.55;;
73219;SDS011;61434;43.538;-5.688;2022-10-16T14:30:03;16.10;;;5.43;;
73219;SDS011;61434;43.538;-5.688;2022-10-16T14:32:33;14.77;;;5.95;;
73219;SDS011;61434;43.538;-5.688;2022-10-16T14:34:59;22.10;;;5.85;;
73219;SDS011;61434;43.538;-5.688;2022-10-16T14:37:26;19.07;;;6.30;;
73219;SDS011;61434;43.538;-5.688;2022-10-16T14:39:54;19.92;;;6.53;;
73219;SDS011;61434;43.538;-5.688;2022-10-16T14:42:22;21.15;;;6.70;;
73219;SDS011;61434;43.538;-5.688;2022-10-16T14:44:53;23.83;;;7.13;;
73219;SDS011;61434;43.538;-5.688;2022-10-16T14:47:23;18.23;;;6.95;;
73219;SDS011;61434;43.538;-5.688;2022-10-16T14:49:51;21.60;;;6.95;;
73219;SDS011;61434;43.538;-5.688;2022-10-16T14:52:20;23.65;;;7.50;;
73219;SDS011;61434;43.538;-5.688;2022-10-16T14:54:48;20.10;;;7.35;;
73219;SDS011;61434;43.538;-5.688;2022-10-16T14:57:18;19.20;;;7.28;;
73219;SDS011;61434;43.538;-5.688;2022-10-16T14:59:46;20.35;;;6.60;;
73219;SDS011;61434;43.538;-5.688;2022-10-16T15:02:28;17.83;;;5.93;;
73219;SDS011;61434;43.538;-5.688;2022-10-16T15:04:56;21.23;;;6.20;;
73219;SDS011;61434;43.538;-5.688;2022-10-16T15:07:21;14.43;;;5.80;;
73219;SDS011;61434;43.538;-5.688;2022-10-16T15:09:47;19.37;;;6.97;;
73219;SDS011;61434;43.538;-5.688;2022-10-16T15:12:13;19.15;;;6.10;;
73219;SDS011;61434;43.538;-5.688;2022-10-16T15:14:38;19.47;;;6.50;;
73219;SDS011;61434;43.538;-5.688;2022-10-16T15:17:04;22.23;;;7.17;;
73219;SDS011;61434;43.538;-5.688;2022-10-16T15:19:29;24.30;;;6.93;;
73219;SDS011;61434;43.538;-5.688;2022-10-16T15:21:55;25.70;;;6.60;;
73219;SDS011;61434;43.538;-5.688;2022-10-16T15:24:21;16.60;;;6.18;;
73219;SDS011;61434;43.538;-5.688;2022-10-16T15:26:46;20.07;;;6.37;;
73219;SDS011;61434;43.538;-5.688;2022-10-16T15:29:12;15.73;;;6.17;;
73219;SDS011;61434;43.538;-5.688;2022-10-16T15:31:38;19.75;;;5.40;;
73219;SDS011;61434;43.538;-5.688;2022-10-16T15:34:08;20.10;;;6.13;;
73219;SDS011;61434;43.538;-5.688;2022-10-16T15:36:35;16.27;;;5.75;;
73219;SDS011;61434;43.538;-5.688;2022-10-16T15:39:05;23.37;;;5.80;;
73219;SDS011;61434;43.538;-5.688;2022-10-16T15:41:38;21.58;;;6.05;;
73219;SDS011;61434;43.538;-5.688;2022-10-16T15:44:04;22.70;;;6.50;;
73219;SDS011;61434;43.538;-5.688;2022-10-16T15:46:29;19.13;;;5.93;;
73219;SDS011;61434;43.538;-5.688;2022-10-16T15:48:57;23.27;;;5.95;;
73219;SDS011;61434;43.538;-5.688;2022-10-16T15:51:23;21.42;;;6.53;;
73219;SDS011;61434;43.538;-5.688;2022-10-16T15:53:50;20.08;;;6.90;;
73219;SDS011;61434;43.538;-5.688;2022-10-16T15:56:16;30.05;;;8.70;;
73219;SDS011;61434;43.538;-5.688;2022-10-16T15:58:42;32.35;;;8.00;;
73219;SDS011;61434;43.538;-5.688;2022-10-16T16:01:08;32.38;;;8.40;;
73219;SDS011;61434;43.538;-5.688;2022-10-16T16:03:35;26.60;;;7.45;;
73219;SDS011;61434;43.538;-5.688;2022-10-16T16:06:05;17.90;;;5.28;;
73219;SDS011;61434;43.538;-5.688;2022-10-16T16:08:35;15.18;;;4.10;;
73219;SDS011;61434;43.538;-5.688;2022-10-16T16:11:06;13.70;;;4.85;;
73219;SDS011;61434;43.538;-5.688;2022-10-16T16:13:34;14.85;;;5.13;;
73219;SDS011;61434;43.538;-5.688;2022-10-16T16:16:01;23.73;;;6.82;;
73219;SDS011;61434;43.538;-5.688;2022-10-16T16:18:30;26.95;;;6.82;;
73219;SDS011;61434;43.538;-5.688;2022-10-16T16:20:56;25.33;;;6.77;;
73219;SDS011;61434;43.538;-5.688;2022-10-16T16:23:21;19.42;;;6.70;;
73219;SDS011;61434;43.538;-5.688;2022-10-16T16:26:03;20.87;;;6.13;;
73219;SDS011;61434;43.538;-5.688;2022-10-16T16:28:29;23.60;;;6.25;;
73219;SDS011;61434;43.538;-5.688;2022-10-16T16:30:55;22.15;;;5.90;;
73219;SDS011;61434;43.538;-5.688;2022-10-16T16:33:20;22.47;;;6.10;;
73219;SDS011;61434;43.538;-5.688;2022-10-16T16:35:46;20.63;;;6.33;;
73219;SDS011;61434;43.538;-5.688;2022-10-16T16:38:11;28.73;;;7.22;;
73219;SDS011;61434;43.538;-5.688;2022-10-16T16:40:37;24.17;;;7.13;;
73219;SDS011;61434;43.538;-5.688;2022-10-16T16:43:02;26.20;;;6.53;;
73219;SDS011;61434;43.538;-5.688;2022-10-16T16:45:29;29.10;;;8.05;;
73219;SDS011;61434;43.538;-5.688;2022-10-16T16:47:54;31.23;;;8.53;;
73219;SDS011;61434;43.538;-5.688;2022-10-16T16:50:20;26.63;;;8.70;;
73219;SDS011;61434;43.538;-5.688;2022-10-16T16:52:45;28.70;;;8.40;;
73219;SDS011;61434;43.538;-5.688;2022-10-16T16:55:10;30.52;;;8.40;;
73219;SDS011;61434;43.538;-5.688;2022-10-16T16:57:36;36.40;;;9.30;;